sensor_id;sensor_type;location;lat;lon;timestamp;pressure;altitude;pressure_sealevel;temperature;humidity
32875;BME280;40468;42.128;24.750;2023-04-01T00:01:27;98864.34;;;12.87;53.64
32875;BME280;40468;42.128;24.750;2023-04-01T00:02:59;98859.19;;;12.86;53.85
32875;BME280;40468;42.128;24.750;2023-04-01T00:04:32;98852.31;;;12.85;53.84
32875;BME280;40468;42.128;24.750;2023-04-01T00:06:05;98850.00;;;12.80;53.76
32875;BME280;40468;42.128;24.750;2023-04-01T00:07:36;98840.59;;;12.78;54.34
32875;BME280;40468;42.128;24.750;2023-04-01T00:09:08;98841.91;;;12.72;54.58
32875;BME280;40468;42.128;24.750;2023-04-01T00:10:40;98850.88;;;12.68;54.46
32875;BME280;40468;42.128;24.750;2023-04-01T00:12:11;98849.19;;;12.67;54.38
32875;BME280;40468;42.128;24.750;2023-04-01T00:13:43;98852.66;;;12.67;54.41
32875;BME280;40468;42.128;24.750;2023-04-01T00:15:15;98853.59;;;12.66;54.50
32875;BME280;40468;42.128;24.750;2023-04-01T00:16:47;98858.59;;;12.69;54.28
32875;BME280;40468;42.128;24.750;2023-04-01T00:18:18;98859.44;;;12.70;54.49
32875;BME280;40468;42.128;24.750;2023-04-01T00:19:53;98862.78;;;12.72;54.56
32875;BME280;40468;42.128;24.750;2023-04-01T00:21:26;98850.03;;;12.67;54.48
32875;BME280;40468;42.128;24.750;2023-04-01T00:22:57;98854.94;;;12.72;54.62
32875;BME280;40468;42.128;24.750;2023-04-01T00:24:28;98862.88;;;12.70;54.33
32875;BME280;40468;42.128;24.750;2023-04-01T00:26:01;98872.50;;;12.70;54.45
32875;BME280;40468;42.128;24.750;2023-04-01T00:27:33;98863.72;;;12.71;54.58
32875;BME280;40468;42.128;24.750;2023-04-01T00:29:04;98867.28;;;12.70;54.55
32875;BME280;40468;42.128;24.750;2023-04-01T00:30:37;98865.28;;;12.61;54.47
32875;BME280;40468;42.128;24.750;2023-04-01T00:32:09;98866.13;;;12.61;54.75
32875;BME280;40468;42.128;24.750;2023-04-01T00:33:41;98872.59;;;12.56;54.77
32875;BME280;40468;42.128;24.750;2023-04-01T00:35:14;98866.13;;;12.48;54.71
32875;BME280;40468;42.128;24.750;2023-04-01T00:36:47;98856.94;;;12.43;54.83
32875;BME280;40468;42.128;24.750;2023-04-01T00:38:19;98863.94;;;12.42;54.64
32875;BME280;40468;42.128;24.750;2023-04-01T00:39:51;98856.72;;;12.33;54.34
32875;BME280;40468;42.128;24.750;2023-04-01T00:41:21;98864.66;;;12.32;54.47
32875;BME280;40468;42.128;24.750;2023-04-01T00:42:53;98864.03;;;12.28;54.26
32875;BME280;40468;42.128;24.750;2023-04-01T00:44:26;98865.81;;;12.27;54.23
32875;BME280;40468;42.128;24.750;2023-04-01T00:45:58;98866.72;;;12.26;54.68
32875;BME280;40468;42.128;24.750;2023-04-01T00:47:29;98862.53;;;12.24;54.22
32875;BME280;40468;42.128;24.750;2023-04-01T00:49:02;98853.13;;;12.21;54.27
32875;BME280;40468;42.128;24.750;2023-04-01T00:50:35;98855.34;;;12.15;54.47
32875;BME280;40468;42.128;24.750;2023-04-01T00:52:11;98855.44;;;12.13;54.63
32875;BME280;40468;42.128;24.750;2023-04-01T00:53:49;98854.50;;;12.01;54.25
32875;BME280;40468;42.128;24.750;2023-04-01T00:55:22;98811.19;;;11.72;54.60
32875;BME280;40468;42.128;24.750;2023-04-01T00:56:57;98856.91;;;12.04;54.43
32875;BME280;40468;42.128;24.750;2023-04-01T00:58:33;98859.59;;;12.03;54.87
32875;BME280;40468;42.128;24.750;2023-04-01T01:00:10;98863.16;;;12.02;54.80
32875;BME280;40468;42.128;24.750;2023-04-01T01:01:43;98856.44;;;11.98;54.87
32875;BME280;40468;42.128;24.750;2023-04-01T01:03:15;98854.78;;;11.97;54.61
32875;BME280;40468;42.128;24.750;2023-04-01T01:04:47;98849.78;;;11.94;54.63
32875;BME280;40468;42.128;24.750;2023-04-01T01:06:30;98787.56;;;11.48;55.10
32875;BME280;40468;42.128;24.750;2023-04-01T01:08:15;98852.91;;;11.86;54.84
32875;BME280;40468;42.128;24.750;2023-04-01T01:09:56;98854.81;;;11.82;55.04
32875;BME280;40468;42.128;24.750;2023-04-01T01:11:36;98847.09;;;11.81;55.24
32875;BME280;40468;42.128;24.750;2023-04-01T01:13:11;98849.50;;;11.84;55.29
32875;BME280;40468;42.128;24.750;2023-04-01T01:14:55;98849.44;;;11.86;54.99
32875;BME280;40468;42.128;24.750;2023-04-01T01:16:31;98850.16;;;11.88;54.92
32875;BME280;40468;42.128;24.750;2023-04-01T01:18:14;98845.59;;;11.91;55.13
32875;BME280;40468;42.128;24.750;2023-04-01T01:20:33;98832.03;;;11.86;54.77
32875;BME280;40468;42.128;24.750;2023-04-01T01:22:22;98845.59;;;11.91;54.86
32875;BME280;40468;42.128;24.750;2023-04-01T01:24:26;98855.63;;;11.97;54.81
32875;BME280;40468;42.128;24.750;2023-04-01T01:26:17;98851.22;;;11.98;55.05
32875;BME280;40468;42.128;24.750;2023-04-01T01:28:06;98855.53;;;11.99;55.00
32875;BME280;40468;42.128;24.750;2023-04-01T01:29:58;98811.00;;;11.75;55.16
32875;BME280;40468;42.128;24.750;2023-04-01T01:31:36;98831.16;;;11.86;55.15
32875;BME280;40468;42.128;24.750;2023-04-01T01:35:16;98848.31;;;12.02;55.23
32875;BME280;40468;42.128;24.750;2023-04-01T01:36:55;98848.94;;;12.06;54.89
32875;BME280;40468;42.128;24.750;2023-04-01T01:38:31;98844.47;;;12.08;55.28
32875;BME280;40468;42.128;24.750;2023-04-01T01:40:07;98839.13;;;12.10;55.24
32875;BME280;40468;42.128;24.750;2023-04-01T01:41:42;98835.59;;;12.11;55.25
32875;BME280;40468;42.128;24.750;2023-04-01T01:43:19;98830.28;;;12.12;55.12
32875;BME280;40468;42.128;24.750;2023-04-01T01:44:52;98833.84;;;12.11;55.01
32875;BME280;40468;42.128;24.750;2023-04-01T01:46:26;98834.56;;;12.13;54.99
32875;BME280;40468;42.128;24.750;2023-04-01T01:48:01;98833.00;;;12.11;55.17
32875;BME280;40468;42.128;24.750;2023-04-01T01:49:34;98832.25;;;12.09;55.05
32875;BME280;40468;42.128;24.750;2023-04-01T01:51:09;98773.53;;;11.76;55.22
32875;BME280;40468;42.128;24.750;2023-04-01T01:52:40;98830.19;;;12.01;55.03
32875;BME280;40468;42.128;24.750;2023-04-01T01:54:12;98827.66;;;11.99;55.42
32875;BME280;40468;42.128;24.750;2023-04-01T01:55:45;98819.28;;;11.94;55.17
32875;BME280;40468;42.128;24.750;2023-04-01T01:57:20;98792.31;;;11.81;55.16
32875;BME280;40468;42.128;24.750;2023-04-01T01:58:57;98809.69;;;11.95;55.19
32875;BME280;40468;42.128;24.750;2023-04-01T02:00:30;98808.66;;;11.97;55.44
32875;BME280;40468;42.128;24.750;2023-04-01T02:02:02;98806.88;;;11.98;55.60
32875;BME280;40468;42.128;24.750;2023-04-01T02:03:39;98813.16;;;11.95;55.65
32875;BME280;40468;42.128;24.750;2023-04-01T02:05:16;98811.78;;;11.90;55.64
32875;BME280;40468;42.128;24.750;2023-04-01T02:06:52;98813.75;;;11.86;55.77
32875;BME280;40468;42.128;24.750;2023-04-01T02:08:26;98805.16;;;11.84;55.60
32875;BME280;40468;42.128;24.750;2023-04-01T02:10:00;98801.06;;;11.80;55.78
32875;BME280;40468;42.128;24.750;2023-04-01T02:11:34;98804.81;;;11.76;55.61
32875;BME280;40468;42.128;24.750;2023-04-01T02:13:13;98803.56;;;11.69;55.95
32875;BME280;40468;42.128;24.750;2023-04-01T02:14:52;98797.81;;;11.64;56.02
32875;BME280;40468;42.128;24.750;2023-04-01T02:16:28;98797.28;;;11.58;56.25
32875;BME280;40468;42.128;24.750;2023-04-01T02:18:01;98806.31;;;11.53;56.52
32875;BME280;40468;42.128;24.750;2023-04-01T02:19:36;98801.50;;;11.47;56.45
32875;BME280;40468;42.128;24.750;2023-04-01T02:21:10;98816.31;;;11.46;56.60
32875;BME280;40468;42.128;24.750;2023-04-01T02:22:47;98770.09;;;11.08;56.55
32875;BME280;40468;42.128;24.750;2023-04-01T02:24:20;98829.75;;;11.40;56.71
32875;BME280;40468;42.128;24.750;2023-04-01T02:25:54;98830.91;;;11.36;56.51
32875;BME280;40468;42.128;24.750;2023-04-01T02:27:27;98831.81;;;11.35;56.72
32875;BME280;40468;42.128;24.750;2023-04-01T02:29:01;98828.47;;;11.33;56.54
32875;BME280;40468;42.128;24.750;2023-04-01T02:30:35;98818.97;;;11.32;56.60
32875;BME280;40468;42.128;24.750;2023-04-01T02:32:08;98811.34;;;11.29;56.80
32875;BME280;40468;42.128;24.750;2023-04-01T02:33:41;98807.91;;;11.28;56.71
32875;BME280;40468;42.128;24.750;2023-04-01T02:35:15;98801.13;;;11.26;56.68
32875;BME280;40468;42.128;24.750;2023-04-01T02:36:47;98797.88;;;11.22;56.56
32875;BME280;40468;42.128;24.750;2023-04-01T02:38:21;98789.31;;;11.20;56.49
32875;BME280;40468;42.128;24.750;2023-04-01T02:39:52;98796.50;;;11.16;56.58
32875;BME280;40468;42.128;24.750;2023-04-01T02:41:25;98793.16;;;11.14;56.65
32875;BME280;40468;42.128;24.750;2023-04-01T02:42:55;98794.16;;;11.12;56.74
32875;BME280;40468;42.128;24.750;2023-04-01T02:44:27;98789.16;;;11.09;56.61
32875;BME280;40468;42.128;24.750;2023-04-01T02:45:59;98789.28;;;11.07;56.93
32875;BME280;40468;42.128;24.750;2023-04-01T02:47:31;98792.91;;;11.05;56.76
32875;BME280;40468;42.128;24.750;2023-04-01T02:49:03;98795.78;;;11.00;57.13
32875;BME280;40468;42.128;24.750;2023-04-01T02:50:35;98810.59;;;11.00;57.09
32875;BME280;40468;42.128;24.750;2023-04-01T02:52:06;98799.31;;;10.99;56.95
32875;BME280;40468;42.128;24.750;2023-04-01T02:53:39;98794.50;;;10.93;57.14
32875;BME280;40468;42.128;24.750;2023-04-01T02:55:11;98799.63;;;10.95;57.44
32875;BME280;40468;42.128;24.750;2023-04-01T02:56:43;98798.78;;;10.94;57.33
32875;BME280;40468;42.128;24.750;2023-04-01T02:58:16;98795.34;;;10.93;57.08
32875;BME280;40468;42.128;24.750;2023-04-01T02:59:48;98791.16;;;10.91;57.28
32875;BME280;40468;42.128;24.750;2023-04-01T03:01:21;98787.81;;;10.89;57.11
32875;BME280;40468;42.128;24.750;2023-04-01T03:02:53;98786.72;;;10.79;57.24
32875;BME280;40468;42.128;24.750;2023-04-01T03:04:24;98790.34;;;10.76;57.46
32875;BME280;40468;42.128;24.750;2023-04-01T03:05:56;98786.81;;;10.77;57.68
32875;BME280;40468;42.128;24.750;2023-04-01T03:07:29;98790.25;;;10.78;57.69
32875;BME280;40468;42.128;24.750;2023-04-01T03:09:02;98779.28;;;10.73;57.58
32875;BME280;40468;42.128;24.750;2023-04-01T03:10:35;98793.81;;;10.77;57.85
32875;BME280;40468;42.128;24.750;2023-04-01T03:12:07;98798.66;;;10.68;57.90
32875;BME280;40468;42.128;24.750;2023-04-01T03:13:38;98800.31;;;10.55;57.98
32875;BME280;40468;42.128;24.750;2023-04-01T03:15:11;98812.22;;;10.45;58.38
32875;BME280;40468;42.128;24.750;2023-04-01T03:16:42;98798.81;;;10.37;58.68
32875;BME280;40468;42.128;24.750;2023-04-01T03:18:14;98799.09;;;10.32;58.84
32875;BME280;40468;42.128;24.750;2023-04-01T03:19:45;98796.78;;;10.28;58.83
32875;BME280;40468;42.128;24.750;2023-04-01T03:21:18;98805.53;;;10.27;58.83
32875;BME280;40468;42.128;24.750;2023-04-01T03:22:50;98791.91;;;10.21;58.97
32875;BME280;40468;42.128;24.750;2023-04-01T03:24:23;98792.84;;;10.20;59.06
32875;BME280;40468;42.128;24.750;2023-04-01T03:25:55;98796.53;;;10.16;59.18
32875;BME280;40468;42.128;24.750;2023-04-01T03:27:27;98787.25;;;10.12;59.21
32875;BME280;40468;42.128;24.750;2023-04-01T03:28:59;98776.34;;;10.06;59.35
32875;BME280;40468;42.128;24.750;2023-04-01T03:30:31;98763.44;;;9.90;59.70
32875;BME280;40468;42.128;24.750;2023-04-01T03:32:04;98783.03;;;9.95;59.58
32875;BME280;40468;42.128;24.750;2023-04-01T03:33:36;98734.94;;;9.58;59.76
32875;BME280;40468;42.128;24.750;2023-04-01T03:35:07;98782.47;;;9.90;59.79
32875;BME280;40468;42.128;24.750;2023-04-01T03:36:40;98781.75;;;9.88;59.86
32875;BME280;40468;42.128;24.750;2023-04-01T03:38:12;98773.94;;;9.88;60.10
32875;BME280;40468;42.128;24.750;2023-04-01T03:39:46;98769.56;;;9.89;59.97
32875;BME280;40468;42.128;24.750;2023-04-01T03:41:18;98758.41;;;9.87;60.34
32875;BME280;40468;42.128;24.750;2023-04-01T03:42:50;98759.34;;;9.86;59.82
32875;BME280;40468;42.128;24.750;2023-04-01T03:44:22;98758.41;;;9.87;59.91
32875;BME280;40468;42.128;24.750;2023-04-01T03:45:54;98759.25;;;9.87;59.96
32875;BME280;40468;42.128;24.750;2023-04-01T03:47:28;98767.16;;;9.86;60.09
32875;BME280;40468;42.128;24.750;2023-04-01T03:49:00;98766.59;;;9.80;60.14
32875;BME280;40468;42.128;24.750;2023-04-01T03:50:34;98769.94;;;9.83;60.37
32875;BME280;40468;42.128;24.750;2023-04-01T03:52:09;98774.31;;;9.82;60.31
32875;BME280;40468;42.128;24.750;2023-04-01T03:53:41;98771.03;;;9.78;60.17
32875;BME280;40468;42.128;24.750;2023-04-01T03:55:13;98777.81;;;9.81;60.38
32875;BME280;40468;42.128;24.750;2023-04-01T03:56:45;98772.78;;;9.78;60.29
32875;BME280;40468;42.128;24.750;2023-04-01T03:58:17;98762.50;;;9.76;60.31
32875;BME280;40468;42.128;24.750;2023-04-01T03:59:49;98768.59;;;9.75;60.47
32875;BME280;40468;42.128;24.750;2023-04-01T04:01:22;98754.00;;;9.73;60.26
32875;BME280;40468;42.128;24.750;2023-04-01T04:02:54;98753.53;;;9.66;60.63
32875;BME280;40468;42.128;24.750;2023-04-01T04:04:27;98750.19;;;9.64;60.53
32875;BME280;40468;42.128;24.750;2023-04-01T04:05:59;98745.00;;;9.64;60.71
32875;BME280;40468;42.128;24.750;2023-04-01T04:07:31;98751.13;;;9.63;60.86
32875;BME280;40468;42.128;24.750;2023-04-01T04:09:03;98754.84;;;9.59;60.76
32875;BME280;40468;42.128;24.750;2023-04-01T04:10:35;98754.84;;;9.59;60.88
32875;BME280;40468;42.128;24.750;2023-04-01T04:12:07;98759.09;;;9.60;60.97
32875;BME280;40468;42.128;24.750;2023-04-01T04:13:38;98761.53;;;9.63;61.00
32875;BME280;40468;42.128;24.750;2023-04-01T04:15:11;98762.16;;;9.67;61.00
32875;BME280;40468;42.128;24.750;2023-04-01T04:16:43;98743.91;;;9.68;61.30
32875;BME280;40468;42.128;24.750;2023-04-01T04:18:15;98750.69;;;9.71;61.36
32875;BME280;40468;42.128;24.750;2023-04-01T04:19:47;98744.47;;;9.73;61.12
32875;BME280;40468;42.128;24.750;2023-04-01T04:21:18;98745.31;;;9.74;61.46
32875;BME280;40468;42.128;24.750;2023-04-01T04:22:50;98750.31;;;9.77;61.30
32875;BME280;40468;42.128;24.750;2023-04-01T04:24:22;98752.09;;;9.76;61.27
32875;BME280;40468;42.128;24.750;2023-04-01T04:25:57;98762.13;;;9.83;61.57
32875;BME280;40468;42.128;24.750;2023-04-01T04:27:29;98759.34;;;9.86;61.57
32875;BME280;40468;42.128;24.750;2023-04-01T04:29:01;98762.69;;;9.88;61.50
32875;BME280;40468;42.128;24.750;2023-04-01T04:30:34;98751.25;;;9.90;61.53
32875;BME280;40468;42.128;24.750;2023-04-01T04:32:06;98749.50;;;9.91;61.48
32875;BME280;40468;42.128;24.750;2023-04-01T04:33:38;98633.91;;;9.23;61.41
32875;BME280;40468;42.128;24.750;2023-04-01T04:35:08;98753.31;;;9.99;61.51
32875;BME280;40468;42.128;24.750;2023-04-01T04:36:40;98744.50;;;10.02;61.52
32875;BME280;40468;42.128;24.750;2023-04-01T04:38:12;98752.13;;;10.05;61.53
32875;BME280;40468;42.128;24.750;2023-04-01T04:39:44;98753.06;;;10.04;61.66
32875;BME280;40468;42.128;24.750;2023-04-01T04:41:19;98760.09;;;10.02;61.49
32875;BME280;40468;42.128;24.750;2023-04-01T04:42:52;98767.06;;;10.01;61.87
32875;BME280;40468;42.128;24.750;2023-04-01T04:44:23;98743.03;;;9.98;61.73
32875;BME280;40468;42.128;24.750;2023-04-01T04:45:54;98751.41;;;10.03;62.05
32875;BME280;40468;42.128;24.750;2023-04-01T04:47:26;98752.13;;;10.05;62.06
32875;BME280;40468;42.128;24.750;2023-04-01T04:48:58;98753.69;;;10.08;62.14
32875;BME280;40468;42.128;24.750;2023-04-01T04:50:30;98758.66;;;10.12;62.15
32875;BME280;40468;42.128;24.750;2023-04-01T04:52:02;98765.44;;;10.15;62.38
32875;BME280;40468;42.128;24.750;2023-04-01T04:53:34;98762.72;;;10.16;62.51
32875;BME280;40468;42.128;24.750;2023-04-01T04:55:06;98766.84;;;10.20;62.13
32875;BME280;40468;42.128;24.750;2023-04-01T04:56:39;98770.81;;;10.26;62.33
32875;BME280;40468;42.128;24.750;2023-04-01T04:58:13;98768.03;;;10.29;62.16
32875;BME280;40468;42.128;24.750;2023-04-01T04:59:44;98765.09;;;10.35;62.20
32875;BME280;40468;42.128;24.750;2023-04-01T05:01:17;98768.25;;;10.40;62.23
32875;BME280;40468;42.128;24.750;2023-04-01T05:02:49;98765.38;;;10.45;62.03
32875;BME280;40468;42.128;24.750;2023-04-01T05:04:21;98758.84;;;10.52;62.13
32875;BME280;40468;42.128;24.750;2023-04-01T05:05:53;98752.34;;;10.59;61.93
32875;BME280;40468;42.128;24.750;2023-04-01T05:07:25;98755.41;;;10.66;61.48
32875;BME280;40468;42.128;24.750;2023-04-01T05:08:56;98757.50;;;10.74;61.50
32875;BME280;40468;42.128;24.750;2023-04-01T05:10:28;98764.03;;;10.81;61.62
32875;BME280;40468;42.128;24.750;2023-04-01T05:12:02;98757.22;;;10.78;61.20
32875;BME280;40468;42.128;24.750;2023-04-01T05:13:34;98762.81;;;10.86;60.72
32875;BME280;40468;42.128;24.750;2023-04-01T05:15:06;98766.78;;;10.92;61.10
32875;BME280;40468;42.128;24.750;2023-04-01T05:16:38;98771.63;;;10.98;60.97
32875;BME280;40468;42.128;24.750;2023-04-01T05:18:09;98768.25;;;10.96;60.74
32875;BME280;40468;42.128;24.750;2023-04-01T05:19:41;98764.72;;;10.97;60.56
32875;BME280;40468;42.128;24.750;2023-04-01T05:21:14;98703.31;;;10.66;60.58
32875;BME280;40468;42.128;24.750;2023-04-01T05:22:46;98753.28;;;11.00;60.80
32875;BME280;40468;42.128;24.750;2023-04-01T05:24:18;98752.03;;;11.05;60.56
32875;BME280;40468;42.128;24.750;2023-04-01T05:25:50;98749.16;;;11.10;60.34
32875;BME280;40468;42.128;24.750;2023-04-01T05:27:24;98749.78;;;11.13;60.21
32875;BME280;40468;42.128;24.750;2023-04-01T05:28:56;98741.34;;;11.10;60.09
32875;BME280;40468;42.128;24.750;2023-04-01T05:30:28;98746.91;;;11.18;60.25
32875;BME280;40468;42.128;24.750;2023-04-01T05:32:00;98751.81;;;11.23;60.33
32875;BME280;40468;42.128;24.750;2023-04-01T05:33:32;98750.66;;;11.27;60.30
32875;BME280;40468;42.128;24.750;2023-04-01T05:35:05;98743.59;;;11.29;60.21
32875;BME280;40468;42.128;24.750;2023-04-01T05:36:37;98741.81;;;11.29;59.80
32875;BME280;40468;42.128;24.750;2023-04-01T05:38:09;98740.91;;;11.30;60.17
32875;BME280;40468;42.128;24.750;2023-04-01T05:39:41;98734.00;;;11.29;60.07
32875;BME280;40468;42.128;24.750;2023-04-01T05:41:13;98649.44;;;10.81;59.82
32875;BME280;40468;42.128;24.750;2023-04-01T05:42:47;98714.63;;;11.33;60.10
32875;BME280;40468;42.128;24.750;2023-04-01T05:44:18;98719.72;;;11.35;59.87
32875;BME280;40468;42.128;24.750;2023-04-01T05:45:50;98718.81;;;11.36;59.82
32875;BME280;40468;42.128;24.750;2023-04-01T05:47:22;98719.53;;;11.38;60.10
32875;BME280;40468;42.128;24.750;2023-04-01T05:48:53;98713.28;;;11.41;60.04
32875;BME280;40468;42.128;24.750;2023-04-01T05:50:25;98706.28;;;11.41;60.13
32875;BME280;40468;42.128;24.750;2023-04-01T05:51:57;98699.81;;;11.34;59.76
32875;BME280;40468;42.128;24.750;2023-04-01T05:53:29;98697.50;;;11.29;60.27
32875;BME280;40468;42.128;24.750;2023-04-01T05:55:01;98688.50;;;11.21;60.10
32875;BME280;40468;42.128;24.750;2023-04-01T05:56:32;98685.28;;;11.17;60.43
32875;BME280;40468;42.128;24.750;2023-04-01T05:58:06;98691.53;;;11.14;60.38
32875;BME280;40468;42.128;24.750;2023-04-01T05:59:38;98681.09;;;11.14;60.45
32875;BME280;40468;42.128;24.750;2023-04-01T06:01:10;98680.81;;;11.19;60.35
32875;BME280;40468;42.128;24.750;2023-04-01T06:02:42;98669.97;;;11.12;60.86
32875;BME280;40468;42.128;24.750;2023-04-01T06:04:14;98693.22;;;11.15;60.86
32875;BME280;40468;42.128;24.750;2023-04-01T06:05:46;98694.03;;;11.16;60.75
32875;BME280;40468;42.128;24.750;2023-04-01T06:07:18;98688.63;;;11.19;60.92
32875;BME280;40468;42.128;24.750;2023-04-01T06:08:51;98684.16;;;11.21;60.81
32875;BME280;40468;42.128;24.750;2023-04-01T06:10:33;98706.75;;;11.21;61.01
32875;BME280;40468;42.128;24.750;2023-04-01T06:12:28;98693.94;;;11.18;60.76
32875;BME280;40468;42.128;24.750;2023-04-01T06:14:19;98670.28;;;11.21;61.16
32875;BME280;40468;42.128;24.750;2023-04-01T06:16:01;98660.78;;;11.20;61.09
32875;BME280;40468;42.128;24.750;2023-04-01T06:17:47;98652.75;;;11.10;61.40
32875;BME280;40468;42.128;24.750;2023-04-01T06:19:35;98657.13;;;11.09;61.46
32875;BME280;40468;42.128;24.750;2023-04-01T06:21:24;98652.00;;;11.08;61.59
32875;BME280;40468;42.128;24.750;2023-04-01T06:23:30;98650.44;;;11.05;61.84
32875;BME280;40468;42.128;24.750;2023-04-01T06:25:22;98647.13;;;11.03;61.52
32875;BME280;40468;42.128;24.750;2023-04-01T06:27:03;98654.34;;;11.12;61.77
32875;BME280;40468;42.128;24.750;2023-04-01T06:28:55;98658.31;;;11.18;61.89
32875;BME280;40468;42.128;24.750;2023-04-01T06:30:38;98668.63;;;11.20;61.67
32875;BME280;40468;42.128;24.750;2023-04-01T06:32:32;98659.97;;;11.19;61.32
32875;BME280;40468;42.128;24.750;2023-04-01T06:34:25;98604.34;;;10.80;61.52
32875;BME280;40468;42.128;24.750;2023-04-01T06:36:12;98666.84;;;11.20;61.29
32875;BME280;40468;42.128;24.750;2023-04-01T06:40:06;98648.38;;;11.10;62.05
32875;BME280;40468;42.128;24.750;2023-04-01T06:42:07;98663.31;;;11.21;62.12
32875;BME280;40468;42.128;24.750;2023-04-01T06:43:50;98661.34;;;11.25;62.11
32875;BME280;40468;42.128;24.750;2023-04-01T06:45:32;98657.56;;;11.29;61.98
32875;BME280;40468;42.128;24.750;2023-04-01T06:47:22;98662.91;;;11.27;62.01
32875;BME280;40468;42.128;24.750;2023-04-01T06:49:05;98658.94;;;11.22;62.54
32875;BME280;40468;42.128;24.750;2023-04-01T06:50:47;98657.66;;;11.14;62.74
32875;BME280;40468;42.128;24.750;2023-04-01T06:52:26;98650.97;;;11.10;62.82
32875;BME280;40468;42.128;24.750;2023-04-01T06:54:07;98659.00;;;11.07;62.91
32875;BME280;40468;42.128;24.750;2023-04-01T06:55:43;98663.06;;;11.11;63.33
32875;BME280;40468;42.128;24.750;2023-04-01T06:57:22;98659.97;;;11.19;63.03
32875;BME280;40468;42.128;24.750;2023-04-01T06:58:58;98618.31;;;10.92;63.31
32875;BME280;40468;42.128;24.750;2023-04-01T07:00:33;98662.91;;;11.27;63.39
32875;BME280;40468;42.128;24.750;2023-04-01T07:02:22;98563.47;;;10.68;63.14
32875;BME280;40468;42.128;24.750;2023-04-01T07:03:57;98671.44;;;11.29;63.15
32875;BME280;40468;42.128;24.750;2023-04-01T07:05:31;98668.94;;;11.28;63.27
32875;BME280;40468;42.128;24.750;2023-04-01T07:07:08;98665.19;;;11.32;63.25
32875;BME280;40468;42.128;24.750;2023-04-01T07:08:45;98665.41;;;11.29;63.32
32875;BME280;40468;42.128;24.750;2023-04-01T07:10:20;98660.09;;;11.30;63.52
32875;BME280;40468;42.128;24.750;2023-04-01T07:11:59;98642.47;;;11.34;63.48
32875;BME280;40468;42.128;24.750;2023-04-01T07:13:34;98636.84;;;11.40;63.63
32875;BME280;40468;42.128;24.750;2023-04-01T07:15:15;98640.81;;;11.46;63.26
32875;BME280;40468;42.128;24.750;2023-04-01T07:16:51;98644.25;;;11.46;63.73
32875;BME280;40468;42.128;24.750;2023-04-01T07:18:30;98638.22;;;11.46;63.64
32875;BME280;40468;42.128;24.750;2023-04-01T07:20:10;98641.44;;;11.49;63.74
32875;BME280;40468;42.128;24.750;2023-04-01T07:21:48;98627.03;;;11.56;63.80
32875;BME280;40468;42.128;24.750;2023-04-01T07:23:23;98571.69;;;11.27;63.62
32875;BME280;40468;42.128;24.750;2023-04-01T07:24:57;98627.28;;;11.66;63.51
32875;BME280;40468;42.128;24.750;2023-04-01T07:26:33;98626.44;;;11.66;63.61
32875;BME280;40468;42.128;24.750;2023-04-01T07:28:06;98618.28;;;11.70;63.35
32875;BME280;40468;42.128;24.750;2023-04-01T07:29:42;98615.38;;;11.75;63.82
32875;BME280;40468;42.128;24.750;2023-04-01T07:31:22;98609.94;;;11.78;63.62
32875;BME280;40468;42.128;24.750;2023-04-01T07:33:01;98597.00;;;11.76;63.63
32875;BME280;40468;42.128;24.750;2023-04-01T07:34:42;98616.09;;;11.77;63.63
32875;BME280;40468;42.128;24.750;2023-04-01T07:36:20;98609.13;;;11.77;63.59
32875;BME280;40468;42.128;24.750;2023-04-01T07:38:06;98612.13;;;11.84;63.63
32875;BME280;40468;42.128;24.750;2023-04-01T07:39:48;98613.31;;;11.93;63.97
32875;BME280;40468;42.128;24.750;2023-04-01T07:41:29;98508.72;;;11.33;63.60
32875;BME280;40468;42.128;24.750;2023-04-01T07:43:16;98613.69;;;11.99;63.64
32875;BME280;40468;42.128;24.750;2023-04-01T07:45:01;98606.47;;;12.03;63.43
32875;BME280;40468;42.128;24.750;2023-04-01T07:46:49;98613.06;;;12.09;63.43
32875;BME280;40468;42.128;24.750;2023-04-01T07:48:30;98601.56;;;12.11;63.49
32875;BME280;40468;42.128;24.750;2023-04-01T07:50:13;98601.03;;;12.19;63.43
32875;BME280;40468;42.128;24.750;2023-04-01T07:51:55;98596.31;;;12.24;63.20
32875;BME280;40468;42.128;24.750;2023-04-01T07:53:36;98608.81;;;12.32;63.01
32875;BME280;40468;42.128;24.750;2023-04-01T07:55:14;98610.16;;;12.37;63.28
32875;BME280;40468;42.128;24.750;2023-04-01T07:56:54;98609.00;;;12.41;63.00
32875;BME280;40468;42.128;24.750;2023-04-01T07:58:34;98599.16;;;12.45;63.10
32875;BME280;40468;42.128;24.750;2023-04-01T08:00:16;98604.22;;;12.59;63.01
32875;BME280;40468;42.128;24.750;2023-04-01T08:01:55;98601.78;;;12.69;62.74
32875;BME280;40468;42.128;24.750;2023-04-01T08:03:38;98551.78;;;12.38;62.26
32875;BME280;40468;42.128;24.750;2023-04-01T08:05:19;98605.59;;;12.76;62.07
32875;BME280;40468;42.128;24.750;2023-04-01T08:06:59;98594.94;;;12.79;62.16
32875;BME280;40468;42.128;24.750;2023-04-01T08:08:43;98545.44;;;12.53;61.93
32875;BME280;40468;42.128;24.750;2023-04-01T08:10:21;98594.38;;;12.87;61.79
32875;BME280;40468;42.128;24.750;2023-04-01T08:12:04;98595.09;;;12.89;62.02
32875;BME280;40468;42.128;24.750;2023-04-01T08:13:44;98578.34;;;12.91;61.74
32875;BME280;40468;42.128;24.750;2023-04-01T08:15:23;98578.84;;;12.96;61.77
32875;BME280;40468;42.128;24.750;2023-04-01T08:17:01;98576.34;;;12.95;61.56
32875;BME280;40468;42.128;24.750;2023-04-01T08:18:39;98569.13;;;12.98;61.78
32875;BME280;40468;42.128;24.750;2023-04-01T08:20:26;98565.56;;;13.00;61.30
32875;BME280;40468;42.128;24.750;2023-04-01T08:22:04;98562.34;;;12.96;61.65
32875;BME280;40468;42.128;24.750;2023-04-01T08:23:40;98509.28;;;12.60;61.67
32875;BME280;40468;42.128;24.750;2023-04-01T08:25:19;98566.50;;;12.98;61.71